createdAt,value
2017-10-19T00:01:33.372Z,22.63
2017-10-19T00:04:00.931Z,18.60
2017-10-19T00:06:28.397Z,22.83
2017-10-19T00:08:55.897Z,20.70
2017-10-19T00:11:23.402Z,21.80
2017-10-19T00:13:50.880Z,23.90
2017-10-19T00:16:19.137Z,20.90
2017-10-19T00:18:46.696Z,25.03
2017-10-19T00:21:14.252Z,28.00
2017-10-19T00:23:41.822Z,18.93
2017-10-19T00:26:09.311Z,20.70
2017-10-19T00:28:37.574Z,26.20
2017-10-19T00:31:05.840Z,20.07
2017-10-19T00:33:34.111Z,20.27
2017-10-19T00:36:01.572Z,21.50
2017-10-19T00:38:29.345Z,19.97
2017-10-19T00:40:56.899Z,21.80
2017-10-19T00:43:25.133Z,23.43
2017-10-19T00:45:52.632Z,20.90
2017-10-19T00:48:21.777Z,22.37
2017-10-19T00:50:49.991Z,19.10
2017-10-19T00:53:17.450Z,22.43
2017-10-19T00:55:44.935Z,21.50
2017-10-19T00:58:13.193Z,20.27
2017-10-19T01:00:40.761Z,21.00
2017-10-19T01:03:08.237Z,20.33
2017-10-19T01:05:36.457Z,25.87
2017-10-19T01:08:03.939Z,20.87
2017-10-19T01:10:31.417Z,20.93
2017-10-19T01:12:58.879Z,17.63
2017-10-19T01:15:27.139Z,21.43
2017-10-19T01:17:54.628Z,20.07
2017-10-19T01:20:22.871Z,21.77
2017-10-19T01:22:50.353Z,17.30
2017-10-19T01:25:18.617Z,20.90
2017-10-19T01:27:46.164Z,21.93
2017-10-19T01:30:13.622Z,20.70
2017-10-19T01:32:41.115Z,17.50
2017-10-19T01:35:09.333Z,20.80
2017-10-19T01:37:36.820Z,21.97
2017-10-19T01:40:04.306Z,21.33
2017-10-19T01:42:31.768Z,20.30
2017-10-19T01:44:59.996Z,18.40
2017-10-19T01:47:27.484Z,18.27
2017-10-19T01:49:59.795Z,16.67
2017-10-19T01:52:27.261Z,17.00
2017-10-19T01:54:54.731Z,16.73
2017-10-19T01:57:22.207Z,20.77
2017-10-19T01:59:49.676Z,16.90
2017-10-19T02:02:17.291Z,14.60
2017-10-19T02:04:44.750Z,19.60
2017-10-19T02:07:12.231Z,16.60
2017-10-19T02:09:42.430Z,16.43
2017-10-19T02:12:11.419Z,16.57
2017-10-19T02:14:38.948Z,14.50
2017-10-19T02:17:07.215Z,15.90
2017-10-19T02:19:36.168Z,12.27
2017-10-19T02:22:03.759Z,15.10
2017-10-19T02:24:31.373Z,17.20
2017-10-19T02:26:58.835Z,15.87
2017-10-19T02:29:26.520Z,15.40
2017-10-19T02:31:54.040Z,12.77
2017-10-19T02:34:21.802Z,12.80
2017-10-19T02:36:49.331Z,15.50
2017-10-19T02:39:16.885Z,14.20
2017-10-19T02:41:44.359Z,14.53
2017-10-19T02:44:13.913Z,17.13
2017-10-19T02:46:42.706Z,16.40
2017-10-19T02:49:10.368Z,15.90
2017-10-19T02:51:40.512Z,14.53
2017-10-19T02:54:08.114Z,15.63
2017-10-19T02:56:35.616Z,14.47
2017-10-19T02:59:03.114Z,18.90
2017-10-19T03:01:31.376Z,15.63
2017-10-19T03:04:00.575Z,16.20
2017-10-19T03:06:28.054Z,14.47
2017-10-19T03:08:56.309Z,20.83
2017-10-19T03:11:23.777Z,15.87
2017-10-19T03:13:51.240Z,16.73
2017-10-19T03:16:19.495Z,15.70
2017-10-19T03:18:47.031Z,21.33
2017-10-19T03:21:14.504Z,15.00
2017-10-19T03:23:41.984Z,18.10
2017-10-19T03:26:10.222Z,17.37
2017-10-19T03:28:37.684Z,22.50
2017-10-19T03:31:05.173Z,15.43
2017-10-19T03:33:32.627Z,15.80
2017-10-19T03:36:00.111Z,17.13
2017-10-19T03:38:28.348Z,19.83
2017-10-19T03:40:55.866Z,15.77
2017-10-19T03:43:24.065Z,20.30
2017-10-19T03:45:52.384Z,19.43
2017-10-19T03:48:24.193Z,14.17
2017-10-19T03:50:51.677Z,17.90
2017-10-19T03:53:19.256Z,16.40
2017-10-19T03:55:46.720Z,18.37
2017-10-19T03:58:14.213Z,17.90
2017-10-19T04:00:41.683Z,16.80
2017-10-19T04:03:09.187Z,16.90
2017-10-19T04:05:36.752Z,24.33
2017-10-19T04:08:04.246Z,19.57
2017-10-19T04:10:33.654Z,16.87
2017-10-19T04:13:01.986Z,17.77
2017-10-19T04:15:29.456Z,19.20
2017-10-19T04:17:56.983Z,21.67
2017-10-19T04:20:24.471Z,20.60
2017-10-19T04:22:51.953Z,21.33
2017-10-19T04:25:20.190Z,18.00
2017-10-19T04:27:47.716Z,22.07
2017-10-19T04:30:15.183Z,18.83
2017-10-19T04:32:42.707Z,19.73
2017-10-19T04:35:10.925Z,20.53
2017-10-19T04:37:39.222Z,28.70
2017-10-19T04:40:06.684Z,19.10
2017-10-19T04:42:34.188Z,23.33
2017-10-19T04:45:02.426Z,18.83
2017-10-19T04:47:29.882Z,20.60
2017-10-19T04:49:57.362Z,16.80
2017-10-19T04:52:25.592Z,15.00
2017-10-19T04:54:53.063Z,18.33
2017-10-19T04:57:20.897Z,17.63
2017-10-19T04:59:48.399Z,17.00
2017-10-19T05:02:15.871Z,17.97
2017-10-19T05:04:43.356Z,17.63
2017-10-19T05:07:11.575Z,17.23
2017-10-19T05:09:39.059Z,15.90
2017-10-19T05:12:06.605Z,15.97
2017-10-19T05:14:34.080Z,15.80
2017-10-19T05:17:01.628Z,14.03
2017-10-19T05:19:29.915Z,21.60
2017-10-19T05:21:57.468Z,18.97
2017-10-19T05:24:24.935Z,18.03
2017-10-19T05:26:52.483Z,21.20
2017-10-19T05:29:20.040Z,15.53
2017-10-19T05:31:47.603Z,19.17
2017-10-19T05:34:15.071Z,19.10
2017-10-19T05:36:42.628Z,19.23
2017-10-19T05:39:10.124Z,14.53
2017-10-19T05:41:37.588Z,16.70
2017-10-19T05:44:05.057Z,22.17
2017-10-19T05:46:32.581Z,18.07
2017-10-19T05:49:00.036Z,17.73
2017-10-19T05:51:28.278Z,18.43
2017-10-19T05:53:55.760Z,16.00
2017-10-19T05:56:23.371Z,19.43
2017-10-19T05:58:50.875Z,17.87
2017-10-19T06:01:18.358Z,16.53
2017-10-19T06:03:46.574Z,17.43
2017-10-19T06:06:14.068Z,16.80
2017-10-19T06:08:41.546Z,16.80
2017-10-19T06:11:09.788Z,18.20
2017-10-19T06:13:37.722Z,19.53
2017-10-19T06:16:05.188Z,14.83
2017-10-19T06:18:32.687Z,19.90
2017-10-19T06:21:00.154Z,19.50
2017-10-19T06:23:27.629Z,18.00
2017-10-19T06:25:55.872Z,18.27
2017-10-19T06:28:23.444Z,20.43
2017-10-19T06:30:51.007Z,18.53
2017-10-19T06:33:18.554Z,19.20
2017-10-19T06:35:46.035Z,19.10
2017-10-19T06:38:13.588Z,19.50
2017-10-19T06:40:41.832Z,18.70
2017-10-19T06:43:09.297Z,16.97
2017-10-19T06:45:36.772Z,15.70
2017-10-19T06:48:04.332Z,20.00
2017-10-19T06:50:31.807Z,18.37
2017-10-19T06:53:00.034Z,17.47
2017-10-19T06:55:27.553Z,16.70
2017-10-19T06:57:55.794Z,18.47
2017-10-19T07:00:23.296Z,17.30
2017-10-19T07:02:51.523Z,19.70
2017-10-19T07:05:19.006Z,16.40
2017-10-19T07:07:46.492Z,25.17
2017-10-19T07:10:13.991Z,22.00
2017-10-19T07:12:41.468Z,20.20
2017-10-19T07:15:08.998Z,22.77
2017-10-19T07:17:36.475Z,20.33
2017-10-19T07:20:03.944Z,21.83
2017-10-19T07:22:31.509Z,25.87
2017-10-19T07:24:58.984Z,25.50
2017-10-19T07:27:27.222Z,22.50
2017-10-19T07:29:54.708Z,27.87
2017-10-19T07:32:22.180Z,25.63
2017-10-19T07:34:50.411Z,27.77
2017-10-19T07:37:17.883Z,26.10
2017-10-19T07:39:45.367Z,23.50
2017-10-19T07:42:13.613Z,26.17
2017-10-19T07:44:41.071Z,25.97
2017-10-19T07:47:08.576Z,23.37
2017-10-19T07:49:36.800Z,27.00
2017-10-19T07:52:04.280Z,30.07
2017-10-19T07:54:31.755Z,27.57
2017-10-19T07:56:59.997Z,40.63
2017-10-19T07:59:27.459Z,47.83
2017-10-19T08:01:54.944Z,54.03
2017-10-19T08:04:22.403Z,56.60
2017-10-19T08:06:50.646Z,54.60
2017-10-19T08:09:18.107Z,56.50
2017-10-19T08:11:45.575Z,48.10
2017-10-19T08:14:13.037Z,53.83
2017-10-19T08:16:40.522Z,48.20
2017-10-19T08:19:08.756Z,41.87
2017-10-19T08:21:36.223Z,43.07
2017-10-19T08:24:03.688Z,48.77
2017-10-19T08:26:31.158Z,37.83
2017-10-19T08:28:58.639Z,36.80
2017-10-19T08:31:26.132Z,38.30
2017-10-19T08:33:53.591Z,37.03
2017-10-19T08:36:21.067Z,31.33
2017-10-19T08:38:48.532Z,32.97
2017-10-19T08:41:16.109Z,35.53
2017-10-19T08:43:43.582Z,30.27
2017-10-19T08:46:11.814Z,26.70
2017-10-19T08:48:39.300Z,27.37
2017-10-19T08:51:06.763Z,39.23
2017-10-19T08:53:34.237Z,29.80
2017-10-19T08:56:02.471Z,29.20
2017-10-19T08:58:29.956Z,27.20
2017-10-19T09:00:57.429Z,28.27
2017-10-19T09:03:25.658Z,24.80
2017-10-19T09:05:53.122Z,25.43
2017-10-19T09:08:20.601Z,26.60
2017-10-19T09:10:48.058Z,24.57
2017-10-19T09:13:15.532Z,29.23
2017-10-19T09:15:44.696Z,28.50
2017-10-19T09:18:12.183Z,26.30
2017-10-19T09:20:40.411Z,24.63
2017-10-19T09:23:07.893Z,24.77
2017-10-19T09:25:35.365Z,23.80
2017-10-19T09:28:03.610Z,27.23
2017-10-19T09:30:31.076Z,28.80
2017-10-19T09:32:58.555Z,35.43
2017-10-19T09:35:26.024Z,32.00
2017-10-19T09:37:53.516Z,35.40
2017-10-19T09:40:20.983Z,33.70
2017-10-19T09:42:48.463Z,40.33
2017-10-19T09:45:15.938Z,38.40
2017-10-19T09:47:43.403Z,38.83
2017-10-19T09:50:10.880Z,40.60
2017-10-19T09:52:39.120Z,39.10
2017-10-19T09:55:06.597Z,37.63
2017-10-19T09:57:34.050Z,38.03
2017-10-19T10:00:01.539Z,33.10
2017-10-19T10:02:29.768Z,29.43
2017-10-19T10:04:57.234Z,28.77
2017-10-19T10:07:24.703Z,33.37
2017-10-19T10:09:52.174Z,26.70
2017-10-19T10:12:19.643Z,29.50
2017-10-19T10:14:47.124Z,36.90
2017-10-19T10:17:14.582Z,30.17
2017-10-19T10:22:35.289Z,24.53
2017-10-19T10:25:03.535Z,22.80
2017-10-19T10:27:30.992Z,33.23
2017-10-19T10:29:58.474Z,22.63
2017-10-19T10:32:25.966Z,21.37
2017-10-19T10:34:53.447Z,18.53
2017-10-19T10:37:20.915Z,25.27
2017-10-19T10:39:48.388Z,27.67
2017-10-19T10:42:15.862Z,17.40
2017-10-19T10:44:43.340Z,21.20
2017-10-19T10:47:11.579Z,16.20
2017-10-19T10:49:39.131Z,18.80
2017-10-19T10:52:06.631Z,17.43
2017-10-19T10:54:34.860Z,19.43
2017-10-19T10:57:02.331Z,18.50
2017-10-19T10:59:29.799Z,16.60
2017-10-19T11:01:57.276Z,17.03
2017-10-19T11:04:25.512Z,17.27
2017-10-19T11:06:52.987Z,16.77
2017-10-19T11:09:20.467Z,16.60
2017-10-19T11:11:47.932Z,15.43
2017-10-19T11:14:16.159Z,15.77
2017-10-19T11:16:43.635Z,14.87
2017-10-19T11:19:11.100Z,14.67
2017-10-19T11:21:38.573Z,16.70
2017-10-19T11:24:06.814Z,14.33
2017-10-19T11:26:34.303Z,13.93
2017-10-19T11:29:02.215Z,19.33
2017-10-19T11:31:29.699Z,15.70
2017-10-19T11:33:57.183Z,15.67
2017-10-19T11:36:24.642Z,16.07
2017-10-19T11:38:52.119Z,15.17
2017-10-19T11:41:20.382Z,16.13
2017-10-19T11:43:47.867Z,20.60
2017-10-19T11:46:15.340Z,14.97
2017-10-19T11:48:42.819Z,16.37
2017-10-19T11:51:10.298Z,15.13
2017-10-19T11:53:37.767Z,15.90
2017-10-19T11:56:05.235Z,13.17
2017-10-19T11:58:32.723Z,12.87
2017-10-19T12:01:00.192Z,12.93
2017-10-19T12:03:27.663Z,12.40
2017-10-19T12:05:55.140Z,12.83
2017-10-19T12:08:22.624Z,12.03
2017-10-19T12:10:50.087Z,12.43
2017-10-19T12:13:17.572Z,11.70
2017-10-19T12:15:45.047Z,9.67
2017-10-19T12:18:12.527Z,9.83
2017-10-19T12:20:40.004Z,8.57
2017-10-19T12:23:07.503Z,8.00
2017-10-19T12:25:34.971Z,8.90
2017-10-19T12:28:02.439Z,7.40
2017-10-19T12:30:29.905Z,8.43
2017-10-19T12:32:57.404Z,6.30
2017-10-19T12:35:24.860Z,6.93
2017-10-19T12:37:52.334Z,6.40
2017-10-19T12:40:19.790Z,6.40
2017-10-19T12:42:47.247Z,7.50
2017-10-19T12:45:14.722Z,6.90
2017-10-19T12:47:42.960Z,7.37
2017-10-19T12:50:10.439Z,7.83
2017-10-19T12:52:37.900Z,6.10
2017-10-19T12:55:05.382Z,6.10
2017-10-19T12:57:33.609Z,5.50
2017-10-19T13:00:01.092Z,5.93
2017-10-19T13:02:28.590Z,5.47
2017-10-19T13:04:56.065Z,7.03
2017-10-19T13:07:23.536Z,8.43
2017-10-19T13:09:51.004Z,6.60
2017-10-19T13:12:18.463Z,7.00
2017-10-19T13:14:45.930Z,7.40
2017-10-19T13:17:13.483Z,7.43
2017-10-19T13:19:41.418Z,6.77
2017-10-19T13:22:08.879Z,6.33
2017-10-19T13:24:36.360Z,11.33
2017-10-19T13:27:03.809Z,6.47
2017-10-19T13:29:31.278Z,10.00
2017-10-19T13:31:58.879Z,6.00
2017-10-19T13:34:27.132Z,7.10
2017-10-19T13:36:54.612Z,6.80
2017-10-19T13:39:22.851Z,7.53
2017-10-19T13:41:50.320Z,5.90
2017-10-19T13:44:17.783Z,6.70
2017-10-19T13:46:45.257Z,6.60
2017-10-19T13:49:12.713Z,9.13
2017-10-19T13:51:40.177Z,7.23
2017-10-19T13:54:08.290Z,8.47
2017-10-19T13:56:35.772Z,7.43
2017-10-19T13:59:03.255Z,7.87
2017-10-19T14:01:30.827Z,7.53
2017-10-19T14:03:58.377Z,8.40
2017-10-19T14:06:25.855Z,6.87
2017-10-19T14:08:54.124Z,6.50
2017-10-19T14:11:21.587Z,6.80
2017-10-19T14:13:49.839Z,8.53
2017-10-19T14:16:17.307Z,7.17
2017-10-19T14:18:44.849Z,7.40
2017-10-19T14:21:12.423Z,8.10
2017-10-19T14:23:39.984Z,10.00
2017-10-19T14:26:07.438Z,6.80
2017-10-19T14:28:35.001Z,8.30
2017-10-19T14:31:02.467Z,12.70
2017-10-19T14:33:29.946Z,8.30
2017-10-19T14:35:58.178Z,11.50
2017-10-19T14:38:25.755Z,9.70
2017-10-19T14:40:53.238Z,7.13
2017-10-19T14:43:21.480Z,8.20
2017-10-19T14:45:48.942Z,9.80
2017-10-19T14:48:16.414Z,10.17
2017-10-19T14:50:44.643Z,7.90
2017-10-19T14:53:12.111Z,9.27
2017-10-19T14:55:39.625Z,7.13
2017-10-19T14:58:07.875Z,7.73
2017-10-19T15:00:35.430Z,8.30
2017-10-19T15:03:02.915Z,10.10
2017-10-19T15:05:30.376Z,7.90
2017-10-19T15:07:57.833Z,8.60
2017-10-19T15:10:26.068Z,15.20
2017-10-19T15:12:53.539Z,13.90
2017-10-19T15:15:21.020Z,10.87
2017-10-19T15:17:48.479Z,8.70
2017-10-19T15:20:15.958Z,9.20
2017-10-19T15:22:44.184Z,9.13
2017-10-19T15:25:11.657Z,11.50
2017-10-19T15:27:39.137Z,8.30
2017-10-19T15:30:06.602Z,9.73
2017-10-19T15:32:34.823Z,12.13
2017-10-19T15:35:02.286Z,15.00
2017-10-19T15:37:29.746Z,9.77
2017-10-19T15:39:57.219Z,9.43
2017-10-19T15:42:24.726Z,11.53
2017-10-19T15:44:52.976Z,9.50
2017-10-19T15:47:20.433Z,9.17
2017-10-19T15:49:47.903Z,9.70
2017-10-19T15:52:16.128Z,9.30
2017-10-19T15:54:43.586Z,9.53
2017-10-19T15:57:11.054Z,10.53
2017-10-19T15:59:38.524Z,9.07
2017-10-19T16:02:05.995Z,11.57
2017-10-19T16:04:33.462Z,9.97
2017-10-19T16:07:00.934Z,11.00
2017-10-19T16:09:29.208Z,9.40
2017-10-19T16:11:57.427Z,10.70
2017-10-19T16:14:24.895Z,9.73
2017-10-19T16:16:52.359Z,10.10
2017-10-19T16:19:19.833Z,9.20
2017-10-19T16:21:47.292Z,9.57
2017-10-19T16:24:14.772Z,14.70
2017-10-19T16:26:42.997Z,8.67
2017-10-19T16:29:10.481Z,8.53
2017-10-19T16:31:39.337Z,9.10
2017-10-19T16:34:06.815Z,9.73
2017-10-19T16:36:34.274Z,9.53
2017-10-19T16:39:01.765Z,10.57
2017-10-19T16:41:29.230Z,11.83
2017-10-19T16:43:57.473Z,11.63
2017-10-19T16:46:24.951Z,14.63
2017-10-19T16:48:52.414Z,11.27
2017-10-19T16:51:19.878Z,9.73
2017-10-19T16:53:48.114Z,12.43
2017-10-19T16:56:15.598Z,11.63
2017-10-19T16:58:49.843Z,11.67
2017-10-19T17:01:17.381Z,15.10
2017-10-19T17:03:44.848Z,11.50
2017-10-19T17:06:13.090Z,13.77
2017-10-19T17:08:40.562Z,14.30
2017-10-19T17:11:08.032Z,9.57
2017-10-19T17:13:35.486Z,12.70
2017-10-19T17:16:02.972Z,10.83
2017-10-19T17:18:31.232Z,14.07
2017-10-19T17:20:58.704Z,9.80
2017-10-19T17:23:26.945Z,15.33
2017-10-19T17:25:54.416Z,13.93
2017-10-19T17:28:21.878Z,10.30
2017-10-19T17:30:49.354Z,10.20
2017-10-19T17:33:17.584Z,12.23
2017-10-19T17:35:45.051Z,11.30
2017-10-19T17:38:12.543Z,9.83
2017-10-19T17:40:40.448Z,11.73
2017-10-19T17:43:07.905Z,10.80
2017-10-19T17:45:35.893Z,14.13
2017-10-19T17:48:03.370Z,15.70
2017-10-19T17:50:30.838Z,12.40
2017-10-19T17:52:58.311Z,21.50
2017-10-19T17:55:26.569Z,18.57
2017-10-19T17:57:54.044Z,24.00
2017-10-19T18:00:21.510Z,32.67
2017-10-19T18:02:49.745Z,23.10
2017-10-19T18:05:17.281Z,21.27
2017-10-19T18:07:44.751Z,22.20
2017-10-19T18:10:12.223Z,29.30
2017-10-19T18:12:39.702Z,30.13
2017-10-19T18:15:07.175Z,26.53
2017-10-19T18:17:35.417Z,25.70
2017-10-19T18:20:02.887Z,25.83
2017-10-19T18:22:30.364Z,24.30
2017-10-19T18:24:57.830Z,22.83
2017-10-19T18:27:26.069Z,29.37
2017-10-19T18:29:53.538Z,21.33
2017-10-19T18:32:21.017Z,20.50
2017-10-19T18:34:48.474Z,18.60
2017-10-19T18:37:15.946Z,20.13
2017-10-19T18:39:44.169Z,22.60
2017-10-19T18:42:11.642Z,20.80
2017-10-19T18:44:39.117Z,17.90
2017-10-19T18:47:06.575Z,20.20
2017-10-19T18:49:34.048Z,18.97
2017-10-19T18:52:02.284Z,19.00
2017-10-19T18:54:29.763Z,22.93
2017-10-19T18:56:57.218Z,21.23
2017-10-19T18:59:24.767Z,19.23
2017-10-19T19:01:52.215Z,18.70
2017-10-19T19:04:19.960Z,17.00
2017-10-19T19:06:47.426Z,18.27
2017-10-19T19:09:14.912Z,20.87
2017-10-19T19:11:42.419Z,16.87
2017-10-19T19:14:09.937Z,21.43
2017-10-19T19:16:38.198Z,18.73
2017-10-19T19:19:05.673Z,19.40
2017-10-19T19:21:33.143Z,16.20
2017-10-19T19:24:00.650Z,17.13
2017-10-19T19:26:28.128Z,16.87
2017-10-19T19:28:55.644Z,14.73
2017-10-19T19:31:23.913Z,16.10
2017-10-19T19:33:52.155Z,19.60
2017-10-19T19:36:19.621Z,18.37
2017-10-19T19:38:47.105Z,15.20
2017-10-19T19:41:15.327Z,16.53
2017-10-19T19:43:42.806Z,16.97
2017-10-19T19:46:10.282Z,19.63
2017-10-19T19:48:37.838Z,17.07
2017-10-19T19:51:06.519Z,16.37
2017-10-19T19:53:33.979Z,16.37
2017-10-19T19:56:01.444Z,15.97
2017-10-19T19:58:28.920Z,16.90
2017-10-19T20:00:57.169Z,17.07
2017-10-19T20:03:24.653Z,17.20
2017-10-19T20:05:52.888Z,18.23
2017-10-19T20:08:20.626Z,16.10
2017-10-19T20:10:48.087Z,16.80
2017-10-19T20:13:15.569Z,17.07
2017-10-19T20:15:43.032Z,15.13
2017-10-19T20:18:10.508Z,15.90
2017-10-19T20:20:37.971Z,17.00
2017-10-19T20:23:05.431Z,14.53
2017-10-19T20:25:32.907Z,16.83
2017-10-19T20:28:01.130Z,21.03
2017-10-19T20:30:29.531Z,16.50
2017-10-19T20:32:57.007Z,18.40
2017-10-19T20:35:24.489Z,18.57
2017-10-19T20:37:51.955Z,17.43
2017-10-19T20:40:19.431Z,16.53
2017-10-19T20:42:46.897Z,17.00
2017-10-19T20:45:14.376Z,23.43
2017-10-19T20:47:41.858Z,16.53
2017-10-19T20:50:09.371Z,17.97
2017-10-19T20:52:36.934Z,17.57
2017-10-19T20:55:04.414Z,16.10
2017-10-19T20:57:31.879Z,15.27
2017-10-19T21:02:29.187Z,13.87
2017-10-19T21:04:56.682Z,18.10
2017-10-19T21:07:24.181Z,18.60
2017-10-19T21:09:52.428Z,14.30
2017-10-19T21:12:19.899Z,13.07
2017-10-19T21:14:47.381Z,15.77
2017-10-19T21:17:14.847Z,17.03
2017-10-19T21:19:43.103Z,16.37
2017-10-19T21:22:10.554Z,14.73
2017-10-19T21:24:38.015Z,15.67
2017-10-19T21:27:06.946Z,12.60
2017-10-19T21:29:34.426Z,13.17
2017-10-19T21:32:01.898Z,13.20
2017-10-19T21:34:29.391Z,14.10
2017-10-19T21:36:56.932Z,17.40
2017-10-19T21:39:24.415Z,14.07
2017-10-19T21:41:51.886Z,16.40
2017-10-19T21:44:20.119Z,18.70
2017-10-19T21:46:47.666Z,14.13
2017-10-19T21:49:15.137Z,16.80
2017-10-19T21:51:42.616Z,12.90
2017-10-19T21:54:10.093Z,15.53
2017-10-19T21:56:38.330Z,13.80
2017-10-19T21:59:05.831Z,14.20
2017-10-19T22:01:34.066Z,16.97
2017-10-19T22:04:01.554Z,13.13
2017-10-19T22:06:29.032Z,16.40
2017-10-19T22:08:57.273Z,14.13
2017-10-19T22:11:25.365Z,13.00
2017-10-19T22:13:52.827Z,13.33
2017-10-19T22:16:21.081Z,13.17
2017-10-19T22:18:48.542Z,12.83
2017-10-19T22:21:16.014Z,14.97
2017-10-19T22:23:44.277Z,11.40
2017-10-19T22:26:11.746Z,15.77
2017-10-19T22:28:39.209Z,13.80
2017-10-19T22:31:07.491Z,16.17
2017-10-19T22:33:35.897Z,12.53
2017-10-19T22:36:03.389Z,12.77
2017-10-19T22:38:30.860Z,13.00
2017-10-19T22:40:58.410Z,11.83
2017-10-19T22:43:26.501Z,16.23
2017-10-19T22:45:53.967Z,11.67
2017-10-19T22:48:21.451Z,12.07
2017-10-19T22:50:49.695Z,8.93
2017-10-19T22:53:17.955Z,12.47
2017-10-19T22:55:45.421Z,12.70
2017-10-19T22:58:12.933Z,12.13
2017-10-19T23:00:40.411Z,12.97
2017-10-19T23:03:07.984Z,11.80
2017-10-19T23:05:35.471Z,13.63
2017-10-19T23:08:02.948Z,12.53
2017-10-19T23:10:31.183Z,15.60
2017-10-19T23:12:58.688Z,11.73
2017-10-19T23:15:26.912Z,12.60
2017-10-19T23:20:47.687Z,11.07
2017-10-19T23:23:15.935Z,12.70
2017-10-19T23:25:43.398Z,22.57
2017-10-19T23:28:10.876Z,12.30
2017-10-19T23:30:39.110Z,13.33
2017-10-19T23:33:06.586Z,12.77
2017-10-19T23:35:34.064Z,13.23
2017-10-19T23:38:02.294Z,11.83
2017-10-19T23:40:29.765Z,10.57
2017-10-19T23:42:57.317Z,13.43
2017-10-19T23:45:24.776Z,12.67
2017-10-19T23:47:52.243Z,13.60
2017-10-19T23:50:19.728Z,10.40
2017-10-19T23:52:47.956Z,11.60
2017-10-19T23:55:15.421Z,15.40
2017-10-19T23:57:42.878Z,12.03
